sensor_id;sensor_type;location;lat;lon;timestamp;pressure;altitude;pressure_sealevel;temperature;humidity
21730;BME280;11027;51.030;13.812;2023-03-20T00:01:11;100270.91;;;11.92;70.96
21730;BME280;11027;51.030;13.812;2023-03-20T00:03:37;100269.56;;;11.88;71.12
21730;BME280;11027;51.030;13.812;2023-03-20T00:06:02;100271.63;;;11.86;71.22
21730;BME280;11027;51.030;13.812;2023-03-20T00:08:28;100269.25;;;11.82;71.21
21730;BME280;11027;51.030;13.812;2023-03-20T00:10:53;100273.22;;;11.80;71.39
21730;BME280;11027;51.030;13.812;2023-03-20T00:13:24;100271.50;;;11.79;71.41
21730;BME280;11027;51.030;13.812;2023-03-20T00:15:50;100273.38;;;11.78;71.53
21730;BME280;11027;51.030;13.812;2023-03-20T00:18:18;100280.16;;;11.82;71.44
21730;BME280;11027;51.030;13.812;2023-03-20T00:20:45;100280.34;;;11.81;71.36
21730;BME280;11027;51.030;13.812;2023-03-20T00:23:10;100285.72;;;11.74;71.47
21730;BME280;11027;51.030;13.812;2023-03-20T00:25:37;100279.19;;;11.75;71.64
21730;BME280;11027;51.030;13.812;2023-03-20T00:28:38;100280.91;;;11.76;71.42
21730;BME280;11027;51.030;13.812;2023-03-20T00:31:37;100286.44;;;11.68;71.51
21730;BME280;11027;51.030;13.812;2023-03-20T00:34:05;100285.13;;;11.64;71.90
21730;BME280;11027;51.030;13.812;2023-03-20T00:36:31;100284.47;;;11.62;71.87
21730;BME280;11027;51.030;13.812;2023-03-20T00:38:56;100286.53;;;11.60;71.94
21730;BME280;11027;51.030;13.812;2023-03-20T00:41:30;100287.28;;;11.54;72.08
21730;BME280;11027;51.030;13.812;2023-03-20T00:44:03;100284.38;;;11.55;72.12
21730;BME280;11027;51.030;13.812;2023-03-20T00:46:33;100280.03;;;11.61;71.72
21730;BME280;11027;51.030;13.812;2023-03-20T00:48:59;100276.28;;;11.62;71.86
21730;BME280;11027;51.030;13.812;2023-03-20T00:51:25;100273.25;;;11.57;72.12
21730;BME280;11027;51.030;13.812;2023-03-20T00:53:51;100274.66;;;11.53;71.71
21730;BME280;11027;51.030;13.812;2023-03-20T00:58:58;100273.63;;;11.54;71.81
21730;BME280;11027;51.030;13.812;2023-03-20T01:01:24;100286.59;;;11.52;71.90
21730;BME280;11027;51.030;13.812;2023-03-20T01:03:49;100279.09;;;11.54;71.86
21730;BME280;11027;51.030;13.812;2023-03-20T01:06:15;100280.31;;;11.51;72.00
21730;BME280;11027;51.030;13.812;2023-03-20T01:08:42;100282.72;;;11.46;71.90
21730;BME280;11027;51.030;13.812;2023-03-20T01:11:09;100274.06;;;11.43;72.16
21730;BME280;11027;51.030;13.812;2023-03-20T01:13:37;100284.41;;;11.47;71.81
21730;BME280;11027;51.030;13.812;2023-03-20T01:16:02;100280.09;;;11.53;71.71
21730;BME280;11027;51.030;13.812;2023-03-20T01:18:27;100281.50;;;11.49;71.84
21730;BME280;11027;51.030;13.812;2023-03-20T01:20:53;100274.72;;;11.45;72.05
21730;BME280;11027;51.030;13.812;2023-03-20T01:23:19;100278.09;;;11.47;72.02
21730;BME280;11027;51.030;13.812;2023-03-20T01:25:46;100267.59;;;11.44;72.18
21730;BME280;11027;51.030;13.812;2023-03-20T01:28:15;100264.19;;;11.41;72.24
21730;BME280;11027;51.030;13.812;2023-03-20T01:30:41;100276.44;;;11.46;72.09
21730;BME280;11027;51.030;13.812;2023-03-20T01:33:13;100269.25;;;11.45;72.22
21730;BME280;11027;51.030;13.812;2023-03-20T01:35:38;100270.97;;;11.46;71.90
21730;BME280;11027;51.030;13.812;2023-03-20T01:38:11;100269.25;;;11.45;71.94
21730;BME280;11027;51.030;13.812;2023-03-20T01:40:46;100269.09;;;11.46;72.04
21730;BME280;11027;51.030;13.812;2023-03-20T01:43:15;100273.88;;;11.44;72.08
21730;BME280;11027;51.030;13.812;2023-03-20T01:45:51;100270.97;;;11.46;72.23
21730;BME280;11027;51.030;13.812;2023-03-20T01:48:19;100269.44;;;11.43;72.33
21730;BME280;11027;51.030;13.812;2023-03-20T01:50:45;100270.47;;;11.42;72.25
21730;BME280;11027;51.030;13.812;2023-03-20T01:53:16;100273.78;;;11.37;72.76
21730;BME280;11027;51.030;13.812;2023-03-20T01:55:44;100271.56;;;11.33;72.68
21730;BME280;11027;51.030;13.812;2023-03-20T01:58:18;100270.72;;;11.32;72.72
21730;BME280;11027;51.030;13.812;2023-03-20T02:00:46;100271.13;;;11.29;73.20
21730;BME280;11027;51.030;13.812;2023-03-20T02:03:13;100271.47;;;11.26;73.50
21730;BME280;11027;51.030;13.812;2023-03-20T02:05:40;100273.34;;;11.26;73.35
21730;BME280;11027;51.030;13.812;2023-03-20T02:08:23;100267.22;;;11.24;73.46
21730;BME280;11027;51.030;13.812;2023-03-20T02:10:51;100272.31;;;11.27;73.26
21730;BME280;11027;51.030;13.812;2023-03-20T02:13:16;100269.13;;;11.23;73.39
21730;BME280;11027;51.030;13.812;2023-03-20T02:18:21;100271.19;;;11.21;73.23
21730;BME280;11027;51.030;13.812;2023-03-20T02:26:25;100266.44;;;11.15;73.78
21730;BME280;11027;51.030;13.812;2023-03-20T02:42:45;100273.75;;;11.14;73.62
21730;BME280;11027;51.030;13.812;2023-03-20T02:45:27;100273.75;;;11.14;73.59
21730;BME280;11027;51.030;13.812;2023-03-20T02:48:03;100267.47;;;11.14;73.50
21730;BME280;11027;51.030;13.812;2023-03-20T02:50:49;100269.53;;;11.12;73.63
21730;BME280;11027;51.030;13.812;2023-03-20T02:53:48;100264.06;;;11.12;73.33
21730;BME280;11027;51.030;13.812;2023-03-20T02:56:45;100270.19;;;11.14;73.69
21730;BME280;11027;51.030;13.812;2023-03-20T02:59:51;100277.34;;;11.15;73.35
21730;BME280;11027;51.030;13.812;2023-03-20T03:02:26;100274.16;;;11.11;73.49
21730;BME280;11027;51.030;13.812;2023-03-20T03:04:59;100275.34;;;11.09;73.61
21730;BME280;11027;51.030;13.812;2023-03-20T03:07:28;100275.53;;;11.07;73.67
21730;BME280;11027;51.030;13.812;2023-03-20T03:09:59;100275.72;;;11.06;73.65
21730;BME280;11027;51.030;13.812;2023-03-20T03:12:34;100266.88;;;11.04;73.85
21730;BME280;11027;51.030;13.812;2023-03-20T03:15:03;100268.94;;;11.01;73.88
21730;BME280;11027;51.030;13.812;2023-03-20T03:17:33;100273.53;;;11.01;73.89
21730;BME280;11027;51.030;13.812;2023-03-20T03:20:04;100274.72;;;10.98;73.95
21730;BME280;11027;51.030;13.812;2023-03-20T03:22:32;100274.72;;;10.98;74.20
21730;BME280;11027;51.030;13.812;2023-03-20T03:24:58;100267.59;;;10.97;74.07
21730;BME280;11027;51.030;13.812;2023-03-20T03:27:27;100267.94;;;10.94;74.12
21730;BME280;11027;51.030;13.812;2023-03-20T03:29:59;100268.13;;;10.93;74.30
21730;BME280;11027;51.030;13.812;2023-03-20T03:32:40;100261.16;;;10.90;74.46
21730;BME280;11027;51.030;13.812;2023-03-20T03:35:14;100259.47;;;10.89;74.64
21730;BME280;11027;51.030;13.812;2023-03-20T03:37:57;100262.38;;;10.88;74.69
21730;BME280;11027;51.030;13.812;2023-03-20T03:40:45;100259.81;;;10.86;74.87
21730;BME280;11027;51.030;13.812;2023-03-20T03:43:19;100265.25;;;10.86;74.83
21730;BME280;11027;51.030;13.812;2023-03-20T03:45:54;100264.25;;;10.87;75.03
21730;BME280;11027;51.030;13.812;2023-03-20T03:48:26;100264.09;;;10.89;74.83
21730;BME280;11027;51.030;13.812;2023-03-20T03:51:04;100273.44;;;10.86;75.09
21730;BME280;11027;51.030;13.812;2023-03-20T03:53:41;100266.66;;;10.82;74.99
21730;BME280;11027;51.030;13.812;2023-03-20T03:56:10;100266.81;;;10.80;75.27
21730;BME280;11027;51.030;13.812;2023-03-20T03:58:40;100266.00;;;10.80;75.14
21730;BME280;11027;51.030;13.812;2023-03-20T04:01:07;100272.47;;;10.79;75.57
21730;BME280;11027;51.030;13.812;2023-03-20T04:03:39;100267.03;;;10.79;75.28
21730;BME280;11027;51.030;13.812;2023-03-20T04:06:07;100265.50;;;10.76;75.58
21730;BME280;11027;51.030;13.812;2023-03-20T04:08:34;100276.41;;;10.76;75.20
21730;BME280;11027;51.030;13.812;2023-03-20T04:10:59;100275.56;;;10.76;75.69
21730;BME280;11027;51.030;13.812;2023-03-20T04:13:25;100272.16;;;10.74;75.83
21730;BME280;11027;51.030;13.812;2023-03-20T04:15:50;100271.50;;;10.72;76.03
21730;BME280;11027;51.030;13.812;2023-03-20T04:18:17;100272.88;;;10.68;75.92
21730;BME280;11027;51.030;13.812;2023-03-20T04:20:44;100275.44;;;10.69;76.23
21730;BME280;11027;51.030;13.812;2023-03-20T04:23:10;100272.16;;;10.74;76.07
21730;BME280;11027;51.030;13.812;2023-03-20T04:25:35;100275.94;;;10.73;75.74
21730;BME280;11027;51.030;13.812;2023-03-20T04:28:01;100277.97;;;10.71;76.13
21730;BME280;11027;51.030;13.812;2023-03-20T04:30:26;100279.84;;;10.70;76.04
21730;BME280;11027;51.030;13.812;2023-03-20T04:32:51;100277.47;;;10.67;76.17
21730;BME280;11027;51.030;13.812;2023-03-20T04:35:17;100277.47;;;10.67;76.17
21730;BME280;11027;51.030;13.812;2023-03-20T04:37:42;100284.63;;;10.68;75.96
21730;BME280;11027;51.030;13.812;2023-03-20T04:40:08;100274.22;;;10.72;75.97
21730;BME280;11027;51.030;13.812;2023-03-20T04:42:34;100285.13;;;10.72;75.64
21730;BME280;11027;51.030;13.812;2023-03-20T04:44:59;100290.94;;;10.69;75.88
21730;BME280;11027;51.030;13.812;2023-03-20T04:47:25;100286.31;;;10.69;75.58
21730;BME280;11027;51.030;13.812;2023-03-20T04:49:50;100287.53;;;10.67;75.73
21730;BME280;11027;51.030;13.812;2023-03-20T04:52:15;100278.31;;;10.68;75.78
21730;BME280;11027;51.030;13.812;2023-03-20T04:54:40;100283.78;;;10.68;75.70
21730;BME280;11027;51.030;13.812;2023-03-20T04:57:06;100283.44;;;10.71;75.67
21730;BME280;11027;51.030;13.812;2023-03-20T04:59:31;100290.56;;;10.72;75.65
21730;BME280;11027;51.030;13.812;2023-03-20T05:01:56;100288.88;;;10.71;75.70
21730;BME280;11027;51.030;13.812;2023-03-20T05:04:22;100296.38;;;10.69;75.58
21730;BME280;11027;51.030;13.812;2023-03-20T05:06:47;100290.06;;;10.68;75.64
21730;BME280;11027;51.030;13.812;2023-03-20T05:09:14;100294.66;;;10.68;75.74
21730;BME280;11027;51.030;13.812;2023-03-20T05:11:40;100294.66;;;10.68;75.62
21730;BME280;11027;51.030;13.812;2023-03-20T05:14:05;100296.72;;;10.66;75.71
21730;BME280;11027;51.030;13.812;2023-03-20T05:16:30;100297.09;;;10.63;76.04
21730;BME280;11027;51.030;13.812;2023-03-20T05:18:56;100297.09;;;10.63;76.24
21730;BME280;11027;51.030;13.812;2023-03-20T05:21:21;100298.09;;;10.61;76.25
21730;BME280;11027;51.030;13.812;2023-03-20T05:23:46;100307.50;;;10.59;76.56
21730;BME280;11027;51.030;13.812;2023-03-20T05:26:11;100306.66;;;10.58;76.58
21730;BME280;11027;51.030;13.812;2023-03-20T05:28:37;100310.38;;;10.57;76.93
21730;BME280;11027;51.030;13.812;2023-03-20T05:31:02;100320.94;;;10.60;76.88
21730;BME280;11027;51.030;13.812;2023-03-20T05:33:27;100320.56;;;10.64;77.00
21730;BME280;11027;51.030;13.812;2023-03-20T05:35:53;100320.91;;;10.69;76.80
21730;BME280;11027;51.030;13.812;2023-03-20T05:38:18;100325.69;;;10.67;76.79
21730;BME280;11027;51.030;13.812;2023-03-20T05:40:47;100330.13;;;10.59;77.24
21730;BME280;11027;51.030;13.812;2023-03-20T05:43:12;100330.47;;;10.65;77.41
21730;BME280;11027;51.030;13.812;2023-03-20T05:45:37;100323.63;;;10.69;77.21
21730;BME280;11027;51.030;13.812;2023-03-20T05:48:03;100333.66;;;10.68;77.23
21730;BME280;11027;51.030;13.812;2023-03-20T05:50:28;100345.44;;;10.69;76.99
21730;BME280;11027;51.030;13.812;2023-03-20T05:52:53;100345.56;;;10.75;76.97
21730;BME280;11027;51.030;13.812;2023-03-20T05:55:18;100340.25;;;10.82;76.99
21730;BME280;11027;51.030;13.812;2023-03-20T05:57:44;100352.97;;;10.90;76.88
21730;BME280;11027;51.030;13.812;2023-03-20T06:00:10;100351.78;;;10.92;76.77
21730;BME280;11027;51.030;13.812;2023-03-20T06:02:36;100348.03;;;10.93;76.88
21730;BME280;11027;51.030;13.812;2023-03-20T06:05:02;100350.59;;;10.95;76.95
21730;BME280;11027;51.030;13.812;2023-03-20T06:07:27;100348.81;;;11.02;76.65
21730;BME280;11027;51.030;13.812;2023-03-20T06:09:53;100357.78;;;11.11;76.46
21730;BME280;11027;51.030;13.812;2023-03-20T06:12:18;100356.06;;;11.18;76.40
21730;BME280;11027;51.030;13.812;2023-03-20T06:14:43;100343.09;;;11.20;76.13
21730;BME280;11027;51.030;13.812;2023-03-20T06:17:09;100351.94;;;11.22;76.28
21730;BME280;11027;51.030;13.812;2023-03-20T06:19:34;100345.75;;;11.28;76.13
21730;BME280;11027;51.030;13.812;2023-03-20T06:22:00;100347.47;;;11.29;76.03
21730;BME280;11027;51.030;13.812;2023-03-20T06:24:26;100355.66;;;11.29;76.22
21730;BME280;11027;51.030;13.812;2023-03-20T06:26:51;100356.31;;;11.31;76.14
21730;BME280;11027;51.030;13.812;2023-03-20T06:29:16;100358.84;;;11.33;75.99
21730;BME280;11027;51.030;13.812;2023-03-20T06:31:41;100357.28;;;11.38;75.74
21730;BME280;11027;51.030;13.812;2023-03-20T06:34:07;100361.06;;;11.37;75.55
21730;BME280;11027;51.030;13.812;2023-03-20T06:36:32;100357.28;;;11.38;75.08
21730;BME280;11027;51.030;13.812;2023-03-20T06:38:57;100362.38;;;11.41;75.24
21730;BME280;11027;51.030;13.812;2023-03-20T06:41:23;100365.91;;;11.50;75.09
21730;BME280;11027;51.030;13.812;2023-03-20T06:43:48;100368.13;;;11.47;74.90
21730;BME280;11027;51.030;13.812;2023-03-20T06:46:13;100366.06;;;11.49;74.80
21730;BME280;11027;51.030;13.812;2023-03-20T06:48:39;100363.84;;;11.52;75.02
21730;BME280;11027;51.030;13.812;2023-03-20T06:51:04;100362.94;;;11.60;74.52
21730;BME280;11027;51.030;13.812;2023-03-20T06:53:30;100365.66;;;11.60;74.43
21730;BME280;11027;51.030;13.812;2023-03-20T06:55:55;100365.28;;;11.63;74.40
21730;BME280;11027;51.030;13.812;2023-03-20T06:58:20;100368.00;;;11.63;74.34
21730;BME280;11027;51.030;13.812;2023-03-20T07:00:45;100361.88;;;11.61;74.26
21730;BME280;11027;51.030;13.812;2023-03-20T07:03:11;100363.94;;;11.59;74.20
21730;BME280;11027;51.030;13.812;2023-03-20T07:05:37;100355.25;;;11.64;74.39
21730;BME280;11027;51.030;13.812;2023-03-20T07:08:03;100363.22;;;11.65;74.31
21730;BME280;11027;51.030;13.812;2023-03-20T07:10:29;100361.53;;;11.64;74.23
21730;BME280;11027;51.030;13.812;2023-03-20T07:12:54;100356.06;;;11.64;74.30
21730;BME280;11027;51.030;13.812;2023-03-20T07:15:19;100362.88;;;11.68;74.15
21730;BME280;11027;51.030;13.812;2023-03-20T07:17:45;100359.75;;;11.71;74.43
21730;BME280;11027;51.030;13.812;2023-03-20T07:20:11;100363.81;;;11.75;74.54
21730;BME280;11027;51.030;13.812;2023-03-20T07:22:37;100367.53;;;11.82;74.44
21730;BME280;11027;51.030;13.812;2023-03-20T07:25:02;100361.03;;;11.84;74.22
21730;BME280;11027;51.030;13.812;2023-03-20T07:27:28;100365.28;;;11.86;73.98
21730;BME280;11027;51.030;13.812;2023-03-20T07:29:53;100362.84;;;11.91;73.90
21730;BME280;11027;51.030;13.812;2023-03-20T07:32:18;100369.47;;;11.97;73.84
21730;BME280;11027;51.030;13.812;2023-03-20T07:34:45;100365.50;;;11.99;73.77
21730;BME280;11027;51.030;13.812;2023-03-20T07:37:11;100374.78;;;12.13;73.42
21730;BME280;11027;51.030;13.812;2023-03-20T07:39:36;100365.47;;;12.23;73.25
21730;BME280;11027;51.030;13.812;2023-03-20T07:42:02;100383.75;;;12.37;73.00
21730;BME280;11027;51.030;13.812;2023-03-20T07:44:27;100373.88;;;12.51;72.66
21730;BME280;11027;51.030;13.812;2023-03-20T07:46:52;100386.59;;;12.58;72.23
21730;BME280;11027;51.030;13.812;2023-03-20T07:49:18;100373.88;;;12.66;71.98
21730;BME280;11027;51.030;13.812;2023-03-20T07:51:47;100382.34;;;12.71;71.64
21730;BME280;11027;51.030;13.812;2023-03-20T07:54:13;100386.41;;;12.75;71.28
21730;BME280;11027;51.030;13.812;2023-03-20T07:56:39;100381.03;;;12.67;71.24
21730;BME280;11027;51.030;13.812;2023-03-20T07:59:05;100380.38;;;12.65;71.52
21730;BME280;11027;51.030;13.812;2023-03-20T08:01:30;100380.75;;;12.61;71.65
21730;BME280;11027;51.030;13.812;2023-03-20T08:03:55;100383.22;;;12.56;71.97
21730;BME280;11027;51.030;13.812;2023-03-20T08:06:21;100383.31;;;12.48;72.24
21730;BME280;11027;51.030;13.812;2023-03-20T08:08:46;100387.63;;;12.43;72.62
21730;BME280;11027;51.030;13.812;2023-03-20T08:11:12;100380.38;;;12.35;73.40
21730;BME280;11027;51.030;13.812;2023-03-20T08:13:37;100391.66;;;12.32;73.45
21730;BME280;11027;51.030;13.812;2023-03-20T08:16:03;100382.78;;;12.30;73.62
21730;BME280;11027;51.030;13.812;2023-03-20T08:18:28;100384.50;;;12.31;73.74
21730;BME280;11027;51.030;13.812;2023-03-20T08:20:54;100385.53;;;12.30;73.67
21730;BME280;11027;51.030;13.812;2023-03-20T08:23:19;100390.72;;;12.25;73.87
21730;BME280;11027;51.030;13.812;2023-03-20T08:25:48;100390.81;;;12.31;73.98
21730;BME280;11027;51.030;13.812;2023-03-20T08:28:14;100394.03;;;12.35;73.78
21730;BME280;11027;51.030;13.812;2023-03-20T08:30:40;100391.28;;;12.35;73.79
21730;BME280;11027;51.030;13.812;2023-03-20T08:33:05;100391.66;;;12.32;73.63
21730;BME280;11027;51.030;13.812;2023-03-20T08:35:30;100396.19;;;12.25;73.70
21730;BME280;11027;51.030;13.812;2023-03-20T08:37:55;100389.38;;;12.20;73.92
21730;BME280;11027;51.030;13.812;2023-03-20T08:40:21;100390.78;;;12.16;74.28
21730;BME280;11027;51.030;13.812;2023-03-20T08:42:46;100391.47;;;12.18;74.23
21730;BME280;11027;51.030;13.812;2023-03-20T08:45:12;100397.41;;;12.22;74.16
21730;BME280;11027;51.030;13.812;2023-03-20T08:47:37;100399.56;;;12.27;73.93
21730;BME280;11027;51.030;13.812;2023-03-20T08:50:03;100392.69;;;12.31;74.02
21730;BME280;11027;51.030;13.812;2023-03-20T08:52:28;100401.25;;;12.28;74.05
21730;BME280;11027;51.030;13.812;2023-03-20T08:54:54;100408.03;;;12.32;73.90
21730;BME280;11027;51.030;13.812;2023-03-20T08:57:19;100397.59;;;12.35;73.77
21730;BME280;11027;51.030;13.812;2023-03-20T08:59:44;100403.16;;;12.42;73.57
21730;BME280;11027;51.030;13.812;2023-03-20T09:02:10;100412.97;;;12.51;73.30
21730;BME280;11027;51.030;13.812;2023-03-20T09:04:36;100400.28;;;12.58;73.04
21730;BME280;11027;51.030;13.812;2023-03-20T09:07:01;100406.84;;;12.64;73.25
21730;BME280;11027;51.030;13.812;2023-03-20T09:09:27;100399.69;;;12.78;72.90
21730;BME280;11027;51.030;13.812;2023-03-20T09:11:54;100402.59;;;12.91;72.73
21730;BME280;11027;51.030;13.812;2023-03-20T09:14:21;100398.44;;;12.95;72.25
21730;BME280;11027;51.030;13.812;2023-03-20T09:16:47;100394.84;;;13.10;72.31
21730;BME280;11027;51.030;13.812;2023-03-20T09:19:12;100401.25;;;13.17;72.16
21730;BME280;11027;51.030;13.812;2023-03-20T09:21:37;100403.88;;;13.25;72.31
21730;BME280;11027;51.030;13.812;2023-03-20T09:24:03;100406.97;;;13.37;71.87
21730;BME280;11027;51.030;13.812;2023-03-20T09:26:28;100398.97;;;13.35;71.20
21730;BME280;11027;51.030;13.812;2023-03-20T09:28:53;100393.38;;;13.44;71.07
21730;BME280;11027;51.030;13.812;2023-03-20T09:31:19;100411.75;;;13.50;71.21
21730;BME280;11027;51.030;13.812;2023-03-20T09:33:44;100409.38;;;13.47;71.01
21730;BME280;11027;51.030;13.812;2023-03-20T09:36:09;100405.47;;;13.34;70.91
21730;BME280;11027;51.030;13.812;2023-03-20T09:38:36;100400.09;;;13.26;71.37
21730;BME280;11027;51.030;13.812;2023-03-20T09:41:02;100409.63;;;13.30;71.40
21730;BME280;11027;51.030;13.812;2023-03-20T09:43:56;100412.09;;;13.25;71.37
21730;BME280;11027;51.030;13.812;2023-03-20T09:51:57;100415.28;;;13.44;71.12
21730;BME280;11027;51.030;13.812;2023-03-20T09:54:28;100407.44;;;13.40;70.83
21730;BME280;11027;51.030;13.812;2023-03-20T09:56:56;100417.59;;;13.47;70.93
21730;BME280;11027;51.030;13.812;2023-03-20T09:59:24;100418.06;;;13.50;70.94
21730;BME280;11027;51.030;13.812;2023-03-20T10:01:53;100426.34;;;13.57;70.81
21730;BME280;11027;51.030;13.812;2023-03-20T10:04:19;100417.16;;;13.65;70.93
21730;BME280;11027;51.030;13.812;2023-03-20T10:06:44;100423.88;;;13.62;70.73
21730;BME280;11027;51.030;13.812;2023-03-20T10:09:21;100420.75;;;13.65;70.72
21730;BME280;11027;51.030;13.812;2023-03-20T10:18:07;100426.50;;;13.92;69.57
21730;BME280;11027;51.030;13.812;2023-03-20T10:20:41;100426.88;;;13.89;69.43
21730;BME280;11027;51.030;13.812;2023-03-20T10:23:16;100427.47;;;13.84;69.59
21730;BME280;11027;51.030;13.812;2023-03-20T10:25:50;100425.72;;;13.76;69.70
21730;BME280;11027;51.030;13.812;2023-03-20T10:28:23;100420.25;;;13.76;70.20
21730;BME280;11027;51.030;13.812;2023-03-20T10:42:21;100417.41;;;14.13;68.97
21730;BME280;11027;51.030;13.812;2023-03-20T10:44:57;100421.75;;;14.29;68.80
21730;BME280;11027;51.030;13.812;2023-03-20T10:47:25;100420.91;;;14.28;68.01
21730;BME280;11027;51.030;13.812;2023-03-20T10:49:56;100413.38;;;14.37;67.53
21730;BME280;11027;51.030;13.812;2023-03-20T10:52:27;100415.03;;;14.31;67.54
21730;BME280;11027;51.030;13.812;2023-03-20T10:54:59;100411.25;;;14.32;67.94
21730;BME280;11027;51.030;13.812;2023-03-20T10:57:28;100411.91;;;14.34;67.87
21730;BME280;11027;51.030;13.812;2023-03-20T10:59:56;100419.25;;;14.34;68.04
21730;BME280;11027;51.030;13.812;2023-03-20T11:02:29;100408.75;;;14.37;67.80
21730;BME280;11027;51.030;13.812;2023-03-20T11:04:55;100416.59;;;14.40;67.95
21730;BME280;11027;51.030;13.812;2023-03-20T11:07:31;100425.78;;;14.33;68.42
21730;BME280;11027;51.030;13.812;2023-03-20T11:12:31;100420.63;;;13.95;70.32
21730;BME280;11027;51.030;13.812;2023-03-20T11:14:59;100411.88;;;14.06;70.05
21730;BME280;11027;51.030;13.812;2023-03-20T11:17:29;100403.88;;;14.33;69.70
21730;BME280;11027;51.030;13.812;2023-03-20T11:20:01;100412.16;;;14.68;68.74
21730;BME280;11027;51.030;13.812;2023-03-20T11:22:28;100405.94;;;14.87;68.03
21730;BME280;11027;51.030;13.812;2023-03-20T11:24:55;100402.47;;;15.13;67.43
21730;BME280;11027;51.030;13.812;2023-03-20T11:27:31;100402.94;;;15.30;66.17
21730;BME280;11027;51.030;13.812;2023-03-20T11:29:59;100410.09;;;15.18;65.45
21730;BME280;11027;51.030;13.812;2023-03-20T11:32:31;100406.22;;;15.06;65.74
21730;BME280;11027;51.030;13.812;2023-03-20T11:37:43;100404.53;;;15.05;65.92
21730;BME280;11027;51.030;13.812;2023-03-20T11:42:38;100403.75;;;14.76;66.86
21730;BME280;11027;51.030;13.812;2023-03-20T11:45:16;100399.09;;;14.76;67.29
21730;BME280;11027;51.030;13.812;2023-03-20T11:47:41;100387.19;;;14.91;66.71
21730;BME280;11027;51.030;13.812;2023-03-20T11:52:50;100395.66;;;15.03;66.05
21730;BME280;11027;51.030;13.812;2023-03-20T11:55:24;100390.59;;;14.99;65.64
21730;BME280;11027;51.030;13.812;2023-03-20T11:57:55;100389.31;;;14.95;65.83
21730;BME280;11027;51.030;13.812;2023-03-20T12:00:23;100393.06;;;14.94;65.88
21730;BME280;11027;51.030;13.812;2023-03-20T12:02:50;100388.03;;;14.91;65.84
21730;BME280;11027;51.030;13.812;2023-03-20T12:05:27;100385.38;;;14.70;66.35
21730;BME280;11027;51.030;13.812;2023-03-20T12:07:59;100386.19;;;14.64;66.77
21730;BME280;11027;51.030;13.812;2023-03-20T12:10:30;100373.94;;;14.66;67.11
21730;BME280;11027;51.030;13.812;2023-03-20T12:13:01;100375.63;;;14.60;67.10
21730;BME280;11027;51.030;13.812;2023-03-20T12:15:35;100377.72;;;14.58;67.18
21730;BME280;11027;51.030;13.812;2023-03-20T12:20:45;100376.94;;;14.71;66.68
21730;BME280;11027;51.030;13.812;2023-03-20T12:25:58;100381.53;;;14.36;67.49
21730;BME280;11027;51.030;13.812;2023-03-20T12:28:30;100378.16;;;14.34;67.80
21730;BME280;11027;51.030;13.812;2023-03-20T12:33:38;100372.25;;;14.58;67.52
21730;BME280;11027;51.030;13.812;2023-03-20T12:36:12;100379.34;;;14.53;67.29
21730;BME280;11027;51.030;13.812;2023-03-20T12:38:38;100377.59;;;14.45;67.23
21730;BME280;11027;51.030;13.812;2023-03-20T12:41:15;100366.94;;;14.29;67.85
21730;BME280;11027;51.030;13.812;2023-03-20T12:44:03;100372.31;;;14.15;68.15
21730;BME280;11027;51.030;13.812;2023-03-20T12:46:43;100365.16;;;14.14;68.19
21730;BME280;11027;51.030;13.812;2023-03-20T12:49:20;100366.84;;;14.15;68.36
21730;BME280;11027;51.030;13.812;2023-03-20T12:52:24;100370.94;;;13.98;68.71
21730;BME280;11027;51.030;13.812;2023-03-20T12:55:19;100359.47;;;13.88;69.12
21730;BME280;11027;51.030;13.812;2023-03-20T12:58:00;100361.94;;;13.83;69.19
21730;BME280;11027;51.030;13.812;2023-03-20T13:00:56;100359.91;;;13.91;69.44
21730;BME280;11027;51.030;13.812;2023-03-20T13:03:50;100364.06;;;14.09;69.18
21730;BME280;11027;51.030;13.812;2023-03-20T13:09:23;100349.00;;;14.54;67.34
21730;BME280;11027;51.030;13.812;2023-03-20T13:12:10;100346.41;;;14.81;66.50
21730;BME280;11027;51.030;13.812;2023-03-20T13:19:51;100352.09;;;14.79;66.00
21730;BME280;11027;51.030;13.812;2023-03-20T13:24:53;100341.09;;;14.73;66.45
21730;BME280;11027;51.030;13.812;2023-03-20T13:27:44;100343.50;;;14.54;67.06
21730;BME280;11027;51.030;13.812;2023-03-20T13:30:24;100340.41;;;14.36;67.15
21730;BME280;11027;51.030;13.812;2023-03-20T13:35:42;100336.97;;;14.20;68.20
21730;BME280;11027;51.030;13.812;2023-03-20T13:38:20;100328.50;;;14.15;67.94
21730;BME280;11027;51.030;13.812;2023-03-20T13:40:51;100324.75;;;14.23;68.49
21730;BME280;11027;51.030;13.812;2023-03-20T13:43:32;100320.91;;;14.17;68.34
21730;BME280;11027;51.030;13.812;2023-03-20T13:46:02;100328.25;;;14.10;67.87
21730;BME280;11027;51.030;13.812;2023-03-20T13:51:35;100313.66;;;14.03;68.44
21730;BME280;11027;51.030;13.812;2023-03-20T13:54:48;100325.97;;;13.86;68.96
21730;BME280;11027;51.030;13.812;2023-03-20T13:57:42;100318.94;;;13.76;69.40
21730;BME280;11027;51.030;13.812;2023-03-20T14:02:53;100322.28;;;13.72;69.63
21730;BME280;11027;51.030;13.812;2023-03-20T14:05:29;100319.22;;;13.60;69.82
21730;BME280;11027;51.030;13.812;2023-03-20T14:08:30;100317.50;;;13.59;70.16
21730;BME280;11027;51.030;13.812;2023-03-20T14:13:35;100327.44;;;13.60;71.08
21730;BME280;11027;51.030;13.812;2023-03-20T14:16:03;100322.97;;;13.59;70.80
21730;BME280;11027;51.030;13.812;2023-03-20T14:18:31;100319.16;;;13.53;71.23
21730;BME280;11027;51.030;13.812;2023-03-20T14:20:59;100325.06;;;13.57;71.24